Time;durP1;ratioP1;P1;durP2;ratioP2;P2;SDS_P1;SDS_P2;PMS_P1;PMS_P2;Temp;Humidity;BMP_temperature;BMP_pressure;BME280_temperature;BME280_humidity;BME280_pressure;Samples;Min_cycle;Max_cycle;Signal;HPM_P1;HPM_P2
2022/05/27 00:01:50;;;;;;;16.20;5.32;;;;;;;13.58;100.00;98435.50;4946970;28;20149;-56
2022/05/27 00:04:15;;;;;;;14.57;5.25;;;;;;;13.29;100.00;98435.88;4949235;28;20542;-54
2022/05/27 00:06:40;;;;;;;12.73;4.88;;;;;;;12.99;100.00;98440.69;4947731;28;20543;-54
2022/05/27 00:09:06;;;;;;;15.18;5.32;;;;;;;13.26;100.00;98433.38;4947042;28;20039;-55
2022/05/27 00:11:31;;;;;;;10.95;4.50;;;;;;;13.24;100.00;98427.38;4947213;28;20039;-55
2022/05/27 00:13:57;;;;;;;12.65;5.00;;;;;;;13.07;100.00;98427.28;4947914;28;20019;-56
2022/05/27 00:16:22;;;;;;;15.27;5.10;;;;;;;13.05;100.00;98435.22;4947372;28;20123;-55
2022/05/27 00:18:48;;;;;;;12.93;4.43;;;;;;;13.20;100.00;98431.06;4947823;28;20059;-55
2022/05/27 00:21:13;;;;;;;17.60;4.85;;;;;;;13.44;100.00;98428.28;4947502;28;20031;-58
2022/05/27 00:23:39;;;;;;;13.48;4.50;;;;;;;13.50;100.00;98425.38;4949497;28;20129;-57
2022/05/27 00:26:05;;;;;;;13.45;4.75;;;;;;;13.36;100.00;98430.38;4946302;28;20119;-58
2022/05/27 00:28:31;;;;;;;16.60;4.82;;;;;;;13.43;100.00;98426.56;4949290;28;20110;-59
2022/05/27 00:30:56;;;;;;;11.60;4.10;;;;;;;13.52;100.00;98420.91;4949596;28;20628;-58
2022/05/27 00:33:22;;;;;;;16.35;4.88;;;;;;;13.25;100.00;98423.84;4951430;28;20051;-57
2022/05/27 00:35:47;;;;;;;13.30;4.47;;;;;;;13.21;100.00;98418.78;4951281;28;20055;-54
2022/05/27 00:38:13;;;;;;;14.00;4.25;;;;;;;13.32;100.00;98413.94;4950692;28;20546;-56
2022/05/27 00:40:41;;;;;;;10.48;3.60;;;;;;;13.36;100.00;98414.66;4950155;28;20067;-56
2022/05/27 00:43:07;;;;;;;11.30;3.80;;;;;;;13.67;100.00;98407.09;4949666;28;20062;-57
2022/05/27 00:45:34;;;;;;;14.30;4.38;;;;;;;13.08;100.00;98413.25;4951321;28;20126;-56
2022/05/27 00:48:01;;;;;;;12.98;4.10;;;;;;;13.05;100.00;98416.00;4950816;28;20027;-56
2022/05/27 00:50:32;;;;;;;12.98;4.47;;;;;;;12.94;100.00;98413.88;4948891;28;20420;-55
2022/05/27 00:53:01;;;;;;;12.23;4.05;;;;;;;12.83;100.00;98422.22;4949020;28;20047;-55
2022/05/27 00:55:29;;;;;;;14.73;4.10;;;;;;;13.14;100.00;98414.75;4951340;28;20182;-54
2022/05/27 00:58:02;;;;;;;13.73;4.00;;;;;;;13.07;100.00;98411.56;4952182;28;20018;-56
2022/05/27 01:00:28;;;;;;;12.43;3.72;;;;;;;12.89;100.00;98416.69;4949758;28;20035;-56
2022/05/27 01:02:55;;;;;;;12.52;3.63;;;;;;;13.41;100.00;98413.53;4950050;28;20034;-55
2022/05/27 01:05:22;;;;;;;11.55;3.85;;;;;;;13.54;100.00;98402.50;4951118;28;20031;-55
2022/05/27 01:07:52;;;;;;;11.07;3.75;;;;;;;13.47;100.00;98404.53;4951815;28;20090;-54
2022/05/27 01:10:18;;;;;;;12.02;3.67;;;;;;;13.51;100.00;98408.75;4949560;28;20034;-55
2022/05/27 01:13:03;;;;;;;11.93;3.88;;;;;;;13.21;100.00;98403.94;4951958;28;20082;-56
2022/05/27 01:16:01;;;;;;;10.20;3.70;;;;;;;13.22;100.00;98396.94;4950600;28;20102;-56
2022/05/27 01:21:52;;;;;;;10.13;3.65;;;;;;;13.19;100.00;98387.44;4948601;28;20045;-55
2022/05/27 01:24:51;;;;;;;13.10;3.85;;;;;;;13.43;100.00;98382.03;4949939;28;20070;-57
2022/05/27 01:27:47;;;;;;;13.43;3.55;;;;;;;13.01;100.00;98385.66;4951582;28;20039;-55
2022/05/27 01:30:15;;;;;;;13.55;4.10;;;;;;;13.15;100.00;98383.25;4949647;28;20031;-55
2022/05/27 01:33:09;;;;;;;11.20;3.50;;;;;;;13.30;100.00;98385.19;4950192;28;20128;-56
2022/05/27 01:35:48;;;;;;;11.32;3.90;;;;;;;12.96;100.00;98385.00;4949613;28;20039;-56
2022/05/27 01:38:34;;;;;;;15.52;4.00;;;;;;;12.89;100.00;98387.06;4949500;28;20038;-55
2022/05/27 01:41:21;;;;;;;13.82;4.05;;;;;;;12.92;100.00;98382.53;4948846;28;20030;-55
2022/05/27 01:43:59;;;;;;;12.18;3.72;;;;;;;12.98;100.00;98384.03;4949060;28;20031;-56
2022/05/27 01:46:33;;;;;;;13.07;4.10;;;;;;;12.66;100.00;98382.81;4950790;28;20118;-57
2022/05/27 01:49:40;;;;;;;12.55;3.92;;;;;;;12.62;100.00;98381.25;4950376;28;20035;-55
2022/05/27 01:52:12;;;;;;;11.30;4.15;;;;;;;12.64;100.00;98380.25;4946746;28;20061;-56
2022/05/27 01:54:56;;;;;;;12.40;4.15;;;;;;;12.46;100.00;98378.44;4951686;28;20027;-57
2022/05/27 01:57:28;;;;;;;14.13;4.43;;;;;;;12.40;100.00;98381.31;4950516;28;20051;-57
2022/05/27 02:00:03;;;;;;;14.65;4.53;;;;;;;12.28;100.00;98377.47;4949201;28;20022;-56
2022/05/27 02:02:32;;;;;;;13.00;4.00;;;;;;;12.44;100.00;98368.06;4949018;28;20051;-56
2022/05/27 02:05:02;;;;;;;13.23;4.03;;;;;;;12.25;100.00;98374.97;4950486;28;20031;-57
2022/05/27 02:07:43;;;;;;;11.55;4.10;;;;;;;12.53;100.00;98366.78;4949111;28;20177;-56
2022/05/27 02:10:27;;;;;;;16.00;4.80;;;;;;;12.18;100.00;98376.13;4948000;28;20126;-57
2022/05/27 02:13:02;;;;;;;13.02;4.60;;;;;;;12.10;100.00;98369.44;4949749;28;20631;-55
2022/05/27 02:15:36;;;;;;;15.43;4.38;;;;;;;12.03;100.00;98372.38;4949835;28;20043;-55
2022/05/27 02:18:09;;;;;;;13.90;4.45;;;;;;;11.80;100.00;98374.16;4951097;28;20531;-57
2022/05/27 02:20:40;;;;;;;16.33;4.75;;;;;;;11.92;100.00;98375.44;4947922;28;20038;-56
2022/05/27 02:23:15;;;;;;;11.27;4.22;;;;;;;11.92;100.00;98376.28;4950460;28;20455;-57
2022/05/27 02:25:44;;;;;;;14.40;4.05;;;;;;;12.04;100.00;98374.94;4950081;28;20058;-55
2022/05/27 02:28:33;;;;;;;12.65;4.15;;;;;;;11.98;100.00;98377.78;4949921;28;20031;-58
2022/05/27 02:31:05;;;;;;;12.82;3.95;;;;;;;12.33;100.00;98370.25;4948047;28;20049;-57
2022/05/27 02:36:37;;;;;;;16.50;4.60;;;;;;;11.97;100.00;98362.19;4948284;28;20066;-55
2022/05/27 02:39:05;;;;;;;13.27;4.15;;;;;;;12.11;100.00;98360.72;4949480;28;20262;-57
2022/05/27 02:41:52;;;;;;;15.55;4.53;;;;;;;11.87;100.00;98362.53;4947906;28;20560;-56
2022/05/27 02:44:24;;;;;;;16.73;4.72;;;;;;;11.79;100.00;98363.75;4947942;28;20039;-56
2022/05/27 02:47:05;;;;;;;15.52;4.57;;;;;;;11.56;100.00;98357.66;4950156;28;20050;-56
2022/05/27 02:49:36;;;;;;;12.63;4.35;;;;;;;11.51;100.00;98363.06;4950932;28;20023;-56
2022/05/27 02:52:25;;;;;;;16.25;4.65;;;;;;;11.44;100.00;98368.59;4947289;28;20054;-56
2022/05/27 02:54:56;;;;;;;16.55;4.65;;;;;;;11.25;100.00;98364.09;4949857;28;20185;-56
2022/05/27 02:57:27;;;;;;;14.68;4.53;;;;;;;11.10;100.00;98362.03;4946514;28;20533;-57
2022/05/27 02:59:54;;;;;;;15.82;4.80;;;;;;;11.59;100.00;98354.94;4947288;28;20057;-57
2022/05/27 03:02:19;;;;;;;14.40;4.40;;;;;;;11.75;100.00;98353.41;4947966;28;20618;-58
2022/05/27 03:04:53;;;;;;;12.38;3.63;;;;;;;11.98;100.00;98342.97;4949835;28;20027;-56
2022/05/27 03:07:36;;;;;;;11.57;4.10;;;;;;;12.32;100.00;98339.78;4948085;28;20045;-55
2022/05/27 03:10:19;;;;;;;;;;;;;;;11.90;100.00;98345.91;4948138;28;20038;-56
2022/05/27 03:13:19;;;;;;;11.60;3.72;;;;;;;11.88;100.00;98342.47;4947682;28;19915;-56
2022/05/27 03:16:15;;;;;;;12.38;3.83;;;;;;;12.70;100.00;98342.50;4933552;28;20035;-58
2022/05/27 03:19:19;;;;;;;14.27;4.13;;;;;;;12.42;100.00;98351.53;4945995;28;20085;-57
2022/05/27 03:21:58;;;;;;;11.77;3.65;;;;;;;12.75;100.00;98351.00;4947275;28;20105;-56
2022/05/27 03:24:42;;;;;;;12.70;3.58;;;;;;;12.42;100.00;98353.31;4948798;28;20030;-56
2022/05/27 03:27:20;;;;;;;13.07;3.97;;;;;;;12.39;100.00;98345.59;4947968;28;20073;-55
2022/05/27 03:30:00;;;;;;;14.55;4.07;;;;;;;11.85;100.00;98347.81;4947650;28;20109;-58
2022/05/27 03:33:00;;;;;;;15.15;4.22;;;;;;;12.01;100.00;98342.84;4946902;28;20046;-56
2022/05/27 03:35:34;;;;;;;12.70;3.60;;;;;;;12.58;100.00;98340.44;4935349;28;20457;-56
2022/05/27 03:38:24;;;;;;;11.45;3.58;;;;;;;12.59;100.00;98340.38;4947542;28;20019;-55
2022/05/27 03:41:01;;;;;;;15.43;4.15;;;;;;;12.76;100.00;98337.00;4947310;28;20050;-55
2022/05/27 03:43:28;;;;;;;13.27;3.88;;;;;;;12.20;100.00;98342.91;4945282;28;20057;-56
2022/05/27 03:45:58;;;;;;;10.68;3.30;;;;;;;12.94;100.00;98345.81;4947644;28;20035;-55
2022/05/27 03:48:27;;;;;;;11.40;3.70;;;;;;;12.94;100.00;98345.81;4949197;28;20031;-55
2022/05/27 03:50:57;;;;;;;12.77;4.05;;;;;;;12.62;100.00;98336.75;4946834;28;20038;-56
2022/05/27 03:54:03;;;;;;;14.40;4.20;;;;;;;12.91;100.00;98340.69;4947480;28;20555;-56
2022/05/27 03:56:07;;;;;;;11.13;3.78;;;;;;;12.80;100.00;98348.19;4947565;28;20039;-57
2022/05/27 03:58:33;;;;;;;15.95;4.15;;;;;;;13.30;100.00;98345.03;4948630;28;20565;-56
2022/05/27 04:00:58;;;;;;;12.75;3.78;;;;;;;13.62;100.00;98330.44;4948429;28;20677;-56
2022/05/27 04:03:23;;;;;;;13.50;3.78;;;;;;;13.69;100.00;98326.63;4948214;28;20746;-55
2022/05/27 04:05:50;;;;;;;10.85;3.80;;;;;;;13.25;100.00;98329.53;4945341;28;20066;-57
2022/05/27 04:08:15;;;;;;;13.68;4.32;;;;;;;13.87;100.00;98332.72;4945854;28;20057;-56
2022/05/27 04:10:41;;;;;;;13.27;4.05;;;;;;;13.76;100.00;98323.69;4947500;28;20050;-56
2022/05/27 04:13:06;;;;;;;13.13;3.78;;;;;;;13.89;100.00;98319.53;4950247;28;20031;-56
2022/05/27 04:15:31;;;;;;;12.75;3.55;;;;;;;13.98;100.00;98310.38;4947798;28;20065;-57
2022/05/27 04:17:57;;;;;;;12.57;3.80;;;;;;;13.84;100.00;98311.03;4947768;28;20062;-56
2022/05/27 04:20:22;;;;;;;10.90;3.40;;;;;;;14.26;100.00;98307.19;4945011;28;20076;-56
2022/05/27 04:22:51;;;;;;;15.23;3.65;;;;;;;14.45;100.00;98302.69;4947701;28;20035;-57
2022/05/27 04:25:17;;;;;;;10.73;3.38;;;;;;;14.57;100.00;98300.34;4945644;28;20038;-55
2022/05/27 04:27:42;;;;;;;13.98;3.70;;;;;;;14.60;100.00;98300.22;4947762;28;20031;-55
2022/05/27 04:30:10;;;;;;;14.73;4.18;;;;;;;14.72;100.00;98298.72;4946875;28;20438;-55
2022/05/27 04:32:35;;;;;;;11.77;3.60;;;;;;;14.63;100.00;98305.31;4946939;28;20661;-56
2022/05/27 04:35:00;;;;;;;10.85;3.47;;;;;;;15.50;100.00;98299.72;4946805;28;20027;-56
2022/05/27 04:37:26;;;;;;;13.50;3.90;;;;;;;15.13;100.00;98304.38;4946218;28;20134;-56
2022/05/27 04:39:51;;;;;;;12.32;4.22;;;;;;;15.14;100.00;98315.72;4944359;28;20123;-57
2022/05/27 04:42:17;;;;;;;10.32;3.15;;;;;;;15.46;100.00;98307.84;4948526;28;20049;-56
2022/05/27 04:44:42;;;;;;;10.27;3.55;;;;;;;15.65;100.00;98303.25;4948152;28;20031;-57
2022/05/27 04:47:09;;;;;;;10.40;3.45;;;;;;;15.69;100.00;98290.78;4947510;28;20050;-56
2022/05/27 04:49:50;;;;;;;15.25;3.63;;;;;;;15.69;100.00;98291.63;4947076;28;20058;-57
2022/05/27 04:52:16;;;;;;;9.53;3.40;;;;;;;15.52;100.00;98305.72;4945852;28;20154;-56
2022/05/27 04:54:42;;;;;;;9.07;3.03;;;;;;;16.45;100.00;98295.13;4947839;28;20065;-56
2022/05/27 04:57:13;;;;;;;9.90;3.22;;;;;;;16.18;100.00;98309.84;4948389;28;21002;-57
2022/05/27 04:59:40;;;;;;;9.07;2.92;;;;;;;15.54;100.00;98301.22;4946982;28;20043;-56
2022/05/27 05:02:05;;;;;;;10.23;3.20;;;;;;;15.69;100.00;98301.28;4943521;28;20082;-56
2022/05/27 05:04:30;;;;;;;9.85;3.50;;;;;;;15.77;100.00;98309.66;4948066;28;21016;-56
2022/05/27 05:07:00;;;;;;;10.52;3.33;;;;;;;16.45;100.00;98311.78;4944479;28;20688;-57
2022/05/27 05:09:26;;;;;;;12.60;3.28;;;;;;;15.87;100.00;98313.41;4946766;28;20023;-56
2022/05/27 05:11:51;;;;;;;9.15;3.08;;;;;;;16.72;100.00;98309.25;4945680;28;20042;-56
2022/05/27 05:14:16;;;;;;;9.07;3.00;;;;;;;16.28;100.00;98315.41;4947693;28;20629;-57
2022/05/27 05:16:41;;;;;;;8.80;3.30;;;;;;;16.32;100.00;98323.97;4947968;28;20035;-56
2022/05/27 05:19:07;;;;;;;9.70;3.20;;;;;;;16.22;100.00;98323.69;4950503;28;20069;-56
2022/05/27 05:21:32;;;;;;;9.77;3.30;;;;;;;16.26;100.00;98329.59;4950748;28;20085;-56
2022/05/27 05:23:57;;;;;;;10.65;3.40;;;;;;;16.75;100.00;98319.59;4950341;28;20034;-57
2022/05/27 05:26:23;;;;;;;9.95;3.20;;;;;;;17.19;100.00;98311.72;4951898;28;20039;-57
2022/05/27 05:28:48;;;;;;;9.52;3.10;;;;;;;17.35;100.00;98309.81;4949737;28;20397;-56
2022/05/27 05:31:16;;;;;;;12.32;3.50;;;;;;;18.54;100.00;98297.56;4949880;28;20035;-58
2022/05/27 05:33:42;;;;;;;10.50;3.20;;;;;;;17.71;100.00;98309.19;4950186;28;20027;-57
2022/05/27 05:36:08;;;;;;;9.07;3.15;;;;;;;17.72;100.00;98310.06;4949054;28;20035;-58
2022/05/27 05:38:33;;;;;;;9.40;3.20;;;;;;;17.51;100.00;98310.50;4949493;28;20038;-57
2022/05/27 05:40:58;;;;;;;11.70;3.28;;;;;;;17.38;100.00;98314.88;4948421;28;20404;-56
2022/05/27 05:43:23;;;;;;;12.23;3.33;;;;;;;17.18;100.00;98317.94;4949842;28;20030;-56
2022/05/27 05:45:49;;;;;;;9.23;3.10;;;;;;;17.04;100.00;98335.44;4950422;28;20564;-57
2022/05/27 05:48:14;;;;;;;9.02;3.20;;;;;;;17.17;100.00;98334.66;4949690;28;20030;-56
2022/05/27 05:50:40;;;;;;;10.82;3.00;;;;;;;16.54;100.00;98334.94;4948143;28;20039;-56
2022/05/27 05:53:05;;;;;;;10.63;3.65;;;;;;;17.10;100.00;98335.06;4953466;28;20153;-57
2022/05/27 05:55:35;;;;;;;12.70;3.70;;;;;;;17.10;100.00;98331.59;4951397;28;20066;-57
2022/05/27 05:58:01;;;;;;;11.52;3.40;;;;;;;16.79;100.00;98336.06;4950694;28;20022;-57
2022/05/27 06:00:26;;;;;;;11.27;3.22;;;;;;;17.13;100.00;98328.78;4950247;28;20080;-56
2022/05/27 06:02:53;;;;;;;8.77;3.10;;;;;;;16.85;100.00;98326.97;4949909;28;20386;-56
2022/05/27 06:05:19;;;;;;;9.55;3.38;;;;;;;16.99;100.00;98329.63;4950458;28;20094;-57
2022/05/27 06:07:45;;;;;;;10.32;3.60;;;;;;;16.52;100.00;98334.19;4951467;28;20035;-56
2022/05/27 06:10:12;;;;;;;11.32;3.65;;;;;;;16.64;100.00;98327.31;4949267;28;20146;-56
2022/05/27 06:12:38;;;;;;;9.57;3.15;;;;;;;16.88;100.00;98327.63;4950070;28;20034;-57
2022/05/27 06:15:05;;;;;;;11.50;3.28;;;;;;;16.58;100.00;98320.66;4947867;28;20028;-56
2022/05/27 06:17:33;;;;;;;9.60;3.15;;;;;;;16.72;100.00;98317.16;4953334;28;20023;-57
2022/05/27 06:19:58;;;;;;;11.88;3.65;;;;;;;16.70;100.00;98321.66;4948692;28;20054;-58
2022/05/27 06:22:24;;;;;;;8.85;3.17;;;;;;;16.72;100.00;98313.69;4947362;28;20129;-57
2022/05/27 06:24:49;;;;;;;10.88;3.60;;;;;;;16.93;100.00;98316.84;4949176;28;20378;-58
2022/05/27 06:27:14;;;;;;;8.82;3.08;;;;;;;16.82;100.00;98324.50;4949425;28;20042;-57
2022/05/27 06:35:07;;;;;;;9.68;3.60;;;;;;;16.91;100.00;98330.09;4947510;28;20062;-57
2022/05/27 06:37:33;;;;;;;10.50;3.70;;;;;;;16.55;100.00;98322.59;4947180;28;20053;-57
2022/05/27 06:39:59;;;;;;;21.67;4.80;;;;;;;16.66;100.00;98329.88;4949310;28;20110;-58
2022/05/27 06:42:24;;;;;;;10.68;3.60;;;;;;;17.01;100.00;98319.81;4947960;28;20093;-58
2022/05/27 06:44:49;;;;;;;9.65;3.28;;;;;;;17.09;100.00;98321.97;4949847;28;20073;-57
2022/05/27 06:47:15;;;;;;;11.63;3.90;;;;;;;16.88;100.00;98326.81;4948794;28;20035;-57
2022/05/27 06:49:44;;;;;;;8.50;3.30;;;;;;;16.86;100.00;98326.06;4948633;28;20737;-58
2022/05/27 06:52:10;;;;;;;14.23;4.22;;;;;;;16.76;100.00;98331.84;4946876;28;20043;-58
2022/05/27 06:54:36;;;;;;;13.02;3.60;;;;;;;17.25;100.00;98327.13;4949256;28;20178;-57
2022/05/27 06:57:03;;;;;;;10.65;3.58;;;;;;;17.34;100.00;98339.75;4948441;28;20030;-57
2022/05/27 06:59:29;;;;;;;12.90;3.85;;;;;;;17.05;100.00;98336.28;4949346;28;20034;-57
2022/05/27 07:01:56;;;;;;;15.57;4.00;;;;;;;16.80;100.00;98332.50;4949193;28;20688;-58
2022/05/27 07:04:21;;;;;;;11.10;3.75;;;;;;;16.84;100.00;98333.22;4949675;28;20569;-58
2022/05/27 07:06:48;;;;;;;12.48;3.83;;;;;;;17.40;100.00;98330.59;4944646;28;20504;-59
2022/05/27 07:09:16;;;;;;;13.82;4.18;;;;;;;16.91;100.00;98324.81;4948506;28;20062;-59
2022/05/27 07:11:44;;;;;;;12.07;3.90;;;;;;;17.45;100.00;98313.53;4948200;28;20634;-57
2022/05/27 07:14:12;;;;;;;12.05;3.70;;;;;;;17.84;100.00;98314.53;4947657;28;20112;-57
2022/05/27 07:16:37;;;;;;;13.65;3.85;;;;;;;17.61;100.00;98307.25;4949635;28;20607;-57
2022/05/27 07:19:02;;;;;;;12.93;4.10;;;;;;;17.88;100.00;98310.78;4948349;28;20031;-57
2022/05/27 07:21:28;;;;;;;11.05;3.78;;;;;;;17.77;100.00;98313.22;4945336;28;20109;-57
2022/05/27 07:23:54;;;;;;;10.23;3.63;;;;;;;17.84;100.00;98313.69;4948361;28;20023;-57
2022/05/27 07:26:21;;;;;;;10.93;3.67;;;;;;;18.06;100.00;98313.13;4948111;28;20035;-59
2022/05/27 07:28:47;;;;;;;11.60;3.92;;;;;;;17.99;100.00;98312.69;4947372;28;20266;-56
2022/05/27 07:31:13;;;;;;;15.02;4.30;;;;;;;17.75;100.00;98309.00;4946339;28;20107;-56
2022/05/27 07:33:40;;;;;;;9.43;3.67;;;;;;;17.75;100.00;98312.47;4947699;28;20038;-55
2022/05/27 07:36:06;;;;;;;10.75;3.85;;;;;;;17.68;100.00;98312.06;4949735;28;20027;-56
2022/05/27 07:38:31;;;;;;;15.57;4.50;;;;;;;17.96;100.00;98322.59;4946439;28;20030;-56
2022/05/27 07:40:57;;;;;;;13.85;4.05;;;;;;;17.83;100.00;98315.47;4947889;28;20035;-55
2022/05/27 07:43:22;;;;;;;12.25;4.22;;;;;;;17.78;100.00;98316.72;4950390;28;20122;-57
2022/05/27 07:45:49;;;;;;;10.60;3.83;;;;;;;17.69;100.00;98323.44;4947364;28;20035;-56
2022/05/27 07:48:14;;;;;;;11.68;4.07;;;;;;;17.99;100.00;98311.84;4948309;28;20062;-58
2022/05/27 07:50:40;;;;;;;10.90;4.15;;;;;;;18.05;100.00;98303.56;4946013;28;20810;-56
2022/05/27 07:53:05;;;;;;;13.00;3.90;;;;;;;17.90;100.00;98294.81;4947581;28;20027;-56
2022/05/27 07:55:31;;;;;;;12.55;4.25;;;;;;;18.48;100.00;98288.25;4948013;28;20058;-57
2022/05/27 07:57:57;;;;;;;12.55;3.67;;;;;;;18.54;100.00;98288.78;4947734;28;20023;-57
2022/05/27 08:00:25;;;;;;;10.63;3.92;;;;;;;18.59;100.00;98284.88;4946010;28;20218;-57
2022/05/27 08:02:51;;;;;;;10.48;4.10;;;;;;;18.34;100.00;98279.59;4943222;28;20031;-57
2022/05/27 08:05:19;;;;;;;10.60;4.25;;;;;;;18.24;100.00;98290.78;4944688;28;20034;-57
2022/05/27 08:07:45;;;;;;;9.77;4.00;;;;;;;18.73;100.00;98288.34;4948065;28;20046;-57
2022/05/27 08:10:14;;;;;;;12.52;3.78;;;;;;;18.74;100.00;98288.25;4945667;28;20026;-56
2022/05/27 08:12:40;;;;;;;12.55;3.97;;;;;;;18.25;100.00;98271.38;4948105;28;20097;-57
2022/05/27 08:15:07;;;;;;;9.98;4.28;;;;;;;18.56;100.00;98282.44;4946458;28;20133;-58
2022/05/27 08:17:33;;;;;;;9.27;3.53;;;;;;;18.80;100.00;98279.03;4948917;28;20023;-57
2022/05/27 08:19:58;;;;;;;15.35;4.85;;;;;;;18.80;100.00;98281.69;4947308;28;20027;-57
2022/05/27 08:22:25;;;;;;;10.70;4.00;;;;;;;18.67;100.00;98287.84;4945504;28;20487;-57
2022/05/27 08:24:50;;;;;;;14.10;4.40;;;;;;;18.26;100.00;98296.81;4946834;28;20042;-56
2022/05/27 08:27:15;;;;;;;11.25;4.18;;;;;;;17.65;100.00;98292.94;4946743;28;20042;-57
2022/05/27 08:29:40;;;;;;;10.77;3.95;;;;;;;18.14;100.00;98297.66;4947150;28;20020;-56
2022/05/27 08:32:06;;;;;;;14.13;4.38;;;;;;;17.68;100.00;98298.00;4946214;28;20081;-57
2022/05/27 08:40:08;;;;;;;13.00;4.60;;;;;;;17.75;100.00;98287.91;4943858;28;20089;-57
2022/05/27 08:42:36;;;;;;;;;;;;;;;18.08;100.00;98292.75;4948116;28;20130;-56
2022/05/27 08:45:24;;;;;;;12.90;4.72;;;;;;;17.96;100.00;98290.94;4947861;28;19914;-58
2022/05/27 08:47:54;;;;;;;10.55;3.88;;;;;;;18.35;100.00;98286.59;4946949;28;20047;-55
2022/05/27 08:50:29;;;;;;;14.43;4.40;;;;;;;18.60;100.00;98281.31;4946549;28;20039;-56
2022/05/27 08:53:09;;;;;;;11.00;3.72;;;;;;;18.82;100.00;98275.41;4951956;28;20038;-56
2022/05/27 09:01:33;;;;;;;12.65;3.90;;;;;;;18.20;100.00;98277.91;4951748;28;20135;-57
2022/05/27 09:04:15;;;;;;;10.95;4.15;;;;;;;18.26;100.00;98267.75;4950367;28;20043;-57
2022/05/27 09:06:48;;;;;;;12.05;3.85;;;;;;;18.10;100.00;98275.03;4949585;28;20038;-58
2022/05/27 09:09:21;;;;;;;10.05;3.95;;;;;;;18.10;100.00;98278.53;4951938;28;20038;-56
2022/05/27 09:12:17;;;;;;;10.70;4.07;;;;;;;17.46;100.00;98277.44;4950673;28;20045;-57
2022/05/27 09:14:58;;;;;;;11.55;4.03;;;;;;;18.17;100.00;98276.31;4950273;28;20031;-56
2022/05/27 09:17:36;;;;;;;11.73;4.25;;;;;;;17.76;100.00;98276.41;4950932;28;20131;-57
2022/05/27 09:20:17;;;;;;;14.52;4.63;;;;;;;17.35;100.00;98286.09;4964308;28;20027;-57
2022/05/27 09:23:06;;;;;;;9.32;3.90;;;;;;;17.78;100.00;98275.34;4950475;28;20098;-56
2022/05/27 09:25:54;;;;;;;13.60;4.50;;;;;;;17.99;100.00;98282.81;4951190;28;20039;-57
2022/05/27 09:28:32;;;;;;;10.82;4.45;;;;;;;17.76;100.00;98276.41;4951913;28;20043;-57
2022/05/27 09:31:00;;;;;;;9.35;3.90;;;;;;;18.03;100.00;98274.59;4948633;28;20066;-58
2022/05/27 09:33:28;;;;;;;11.77;4.13;;;;;;;17.84;100.00;98274.94;4949879;28;20031;-58
2022/05/27 09:36:04;;;;;;;12.43;5.20;;;;;;;17.48;100.00;98276.44;4950283;28;20631;-57
2022/05/27 09:38:34;;;;;;;11.60;4.68;;;;;;;17.74;100.00;98268.59;4950699;28;20039;-57
2022/05/27 09:41:11;;;;;;;13.40;4.95;;;;;;;17.75;100.00;98267.63;4951828;28;20049;-56
2022/05/27 09:43:52;;;;;;;11.02;4.88;;;;;;;17.67;100.00;98264.66;4950367;28;20038;-56
2022/05/27 09:46:26;;;;;;;12.18;4.68;;;;;;;17.45;100.00;98273.13;4950785;28;20035;-57
2022/05/27 09:48:52;;;;;;;15.95;5.40;;;;;;;17.86;100.00;98264.31;4964149;28;20046;-57
2022/05/27 09:51:18;;;;;;;13.60;4.93;;;;;;;17.50;100.00;98274.53;4950458;28;20597;-56
2022/05/27 09:53:48;;;;;;;13.93;5.00;;;;;;;17.30;100.00;98267.91;4951168;28;20034;-57
2022/05/27 09:56:16;;;;;;;9.02;4.30;;;;;;;17.60;100.00;98263.38;4949379;28;20042;-56
2022/05/27 09:58:45;;;;;;;13.23;5.50;;;;;;;17.65;100.00;98262.13;4948871;28;20028;-57
2022/05/27 10:01:25;;;;;;;10.85;4.63;;;;;;;17.60;100.00;98260.75;4946911;28;20098;-58
2022/05/27 10:04:02;;;;;;;12.27;4.72;;;;;;;17.76;100.00;98255.31;4951653;28;20069;-57
2022/05/27 10:06:30;;;;;;;12.43;4.93;;;;;;;17.46;100.00;98262.50;4949666;28;20065;-58
2022/05/27 10:09:00;;;;;;;12.43;5.20;;;;;;;17.57;100.00;98253.03;4948982;28;20139;-58
2022/05/27 10:11:29;;;;;;;11.77;4.88;;;;;;;17.73;100.00;98258.97;4949234;28;20046;-57
2022/05/27 10:14:07;;;;;;;11.48;4.85;;;;;;;17.79;100.00;98265.63;4951086;28;20058;-57
2022/05/27 10:16:34;;;;;;;9.68;4.53;;;;;;;17.72;100.00;98259.94;4948493;28;20043;-56
2022/05/27 10:19:13;;;;;;;12.18;5.10;;;;;;;17.91;100.00;98263.06;4950559;28;20420;-56
2022/05/27 10:21:57;;;;;;;11.80;4.78;;;;;;;17.79;100.00;98257.72;4949686;28;20388;-57
2022/05/27 10:24:32;;;;;;;10.13;4.40;;;;;;;18.12;100.00;98259.94;4949244;28;20121;-57
2022/05/27 10:27:12;;;;;;;10.77;4.80;;;;;;;18.34;100.00;98255.81;4948237;28;20105;-58
2022/05/27 10:29:59;;;;;;;14.60;5.93;;;;;;;17.74;100.00;98244.84;4949885;28;20027;-57
2022/05/27 10:32:25;;;;;;;13.23;5.57;;;;;;;18.00;100.00;98251.06;4947241;28;20762;-57
2022/05/27 10:34:50;;;;;;;12.40;4.78;;;;;;;18.44;100.00;98246.34;4948849;28;20118;-56
2022/05/27 10:37:30;;;;;;;14.23;5.18;;;;;;;18.47;100.00;98259.31;4948678;28;20077;-56
2022/05/27 10:40:20;;;;;;;14.70;6.07;;;;;;;18.61;100.00;98256.56;4950508;28;20031;-57
2022/05/27 10:43:09;;;;;;;11.05;4.80;;;;;;;18.79;100.00;98248.31;4948255;28;20047;-58
2022/05/27 10:45:39;;;;;;;15.60;5.30;;;;;;;18.32;100.00;98250.66;4947315;28;20027;-58
2022/05/27 10:48:31;;;;;;;11.10;4.82;;;;;;;18.96;100.00;98253.25;4948817;28;20039;-57
2022/05/27 10:51:00;;;;;;;11.48;4.70;;;;;;;18.64;100.00;98258.16;4948373;28;20050;-58
2022/05/27 10:53:36;;;;;;;12.55;5.20;;;;;;;18.43;100.00;98252.56;4950327;28;20529;-58
2022/05/27 10:56:14;;;;;;;9.80;4.47;;;;;;;18.82;100.00;98248.09;4947620;28;20042;-56
2022/05/27 11:02:05;;;;;;;10.10;4.85;;;;;;;18.81;100.00;98249.06;4946228;28;20046;-58
2022/05/27 11:04:48;;;;;;;11.95;5.07;;;;;;;18.63;100.00;98244.09;4948590;28;20031;-57
2022/05/27 11:07:13;;;;;;;11.82;5.30;;;;;;;18.16;100.00;98239.44;4948331;28;20070;-57
2022/05/27 11:09:58;;;;;;;14.63;5.20;;;;;;;18.46;100.00;98231.22;4947140;28;20034;-58
2022/05/27 11:15:55;;;;;;;12.55;5.60;;;;;;;18.64;100.00;98235.22;4950040;28;20053;-58
2022/05/27 11:18:23;;;;;;;11.48;4.88;;;;;;;19.13;100.00;98233.53;4947600;28;20062;-58
2022/05/27 11:21:18;;;;;;;12.23;5.25;;;;;;;19.43;100.00;98230.47;4947917;28;20540;-57
2022/05/27 11:24:08;;;;;;;10.85;5.13;;;;;;;19.02;100.00;98228.19;4929045;28;20047;-57
2022/05/27 11:26:56;;;;;;;10.30;4.88;;;;;;;18.91;100.00;98236.88;4947864;28;20904;-57
2022/05/27 11:29:30;;;;;;;8.88;3.97;;;;;;;18.82;100.00;98234.88;4947608;28;20026;-58
2022/05/27 11:32:02;;;;;;;11.30;4.60;;;;;;;18.63;100.00;98237.97;4947906;28;20587;-57
2022/05/27 11:35:04;;;;;;;10.75;4.13;;;;;;;18.25;100.00;98228.25;4947932;28;20093;-58
2022/05/27 11:37:35;;;;;;;;;;;;;;;19.14;100.00;98231.75;4941179;28;20062;-58
2022/05/27 11:40:20;;;;;;;15.15;5.10;;;;;;;18.69;100.00;98234.88;4948012;28;20021;-57
2022/05/27 11:43:23;;;;;;;11.40;4.55;;;;;;;18.75;100.00;98231.81;4947994;28;20099;-58
2022/05/27 11:46:16;;;;;;;7.50;4.10;;;;;;;18.90;100.00;98221.97;4948883;28;20505;-58
2022/05/27 11:49:07;;;;;;;14.15;5.30;;;;;;;19.29;100.00;98235.91;4945979;28;20026;-54
2022/05/27 11:51:39;;;;;;;12.20;4.82;;;;;;;18.87;100.00;98227.47;4942348;28;20039;-55
2022/05/27 11:54:13;;;;;;;14.18;5.03;;;;;;;19.07;100.00;98216.31;4942899;28;20031;-58
2022/05/27 11:56:47;;;;;;;16.95;5.25;;;;;;;18.70;100.00;98236.56;4942975;28;20138;-60
2022/05/27 11:59:21;;;;;;;13.15;5.40;;;;;;;18.51;100.00;98234.41;4942598;28;20093;-58
2022/05/27 12:02:14;;;;;;;11.10;4.75;;;;;;;18.32;100.00;98228.69;4956413;28;20035;-58
2022/05/27 12:04:51;;;;;;;11.52;4.80;;;;;;;19.42;100.00;98220.00;4944094;28;20027;-57
2022/05/27 12:07:46;;;;;;;17.15;5.82;;;;;;;19.11;100.00;98221.38;4943015;28;20100;-56
2022/05/27 12:10:40;;;;;;;15.50;5.32;;;;;;;18.91;100.00;98220.19;4939297;28;20026;-58
2022/05/27 12:13:34;;;;;;;13.27;4.65;;;;;;;19.10;100.00;98224.97;4937156;28;20369;-57